19S

Sublette Municipal Airport

Sublette, Kansas, USA
METAR K19S 181415Z AUTO 15004KT 10SM CLR 01/00 A2964 RMK AO2 T00111001
Observed Flight Rules
Jan-18 @ 14:15 UTC (17 minutes ago) Visual Flight Rules
Wind Visibility Clouds
150° at 4 knots 10 miles
  • Clear skies
Temperatures Readings
Current 1°C / 34°F
Dewpoint -0°C / 32°F
Humidity 93%
Altimeter 29.64" Hg
Pressure 1003.72 hPa
Elevation 886
METAR K19S 181415Z AUTO 15004KT 10SM CLR 01/00 A2964 RMK AO2 T00111001
Observed Flight Rules
Jan-18 @ 14:15 UTC
(17 minutes ago)
VFR
Wind Visibility
150° at 4 knots 10 miles
Clouds
  • Clear skies
Temperature Dewpoint
1°C / 34°F -0°C / 32°F
Humidity Altimeter Pressure
93% 29.64" Hg 1003.72 hPa